sensor_id;sensor_type;location;lat;lon;timestamp;temperature;humidity
16102;DHT22;56411;52.964;10.540;2024-03-22T00:01:42;7.40;99.90
16102;DHT22;56411;52.964;10.540;2024-03-22T00:04:09;7.40;99.90
16102;DHT22;56411;52.964;10.540;2024-03-22T00:06:36;7.40;99.90
16102;DHT22;56411;52.964;10.540;2024-03-22T00:09:03;7.40;99.90
16102;DHT22;56411;52.964;10.540;2024-03-22T00:11:30;7.40;99.90
16102;DHT22;56411;52.964;10.540;2024-03-22T00:13:58;7.50;99.90
16102;DHT22;56411;52.964;10.540;2024-03-22T00:16:24;7.50;99.90
16102;DHT22;56411;52.964;10.540;2024-03-22T00:18:51;7.50;99.90
16102;DHT22;56411;52.964;10.540;2024-03-22T00:21:17;7.50;99.90
16102;DHT22;56411;52.964;10.540;2024-03-22T00:23:45;7.50;99.90
16102;DHT22;56411;52.964;10.540;2024-03-22T00:26:11;7.50;99.90
16102;DHT22;56411;52.964;10.540;2024-03-22T00:28:38;7.50;99.90
16102;DHT22;56411;52.964;10.540;2024-03-22T00:31:04;7.50;99.90
16102;DHT22;56411;52.964;10.540;2024-03-22T00:33:32;7.50;99.90
16102;DHT22;56411;52.964;10.540;2024-03-22T00:35:58;7.50;99.90
16102;DHT22;56411;52.964;10.540;2024-03-22T00:38:25;7.50;99.90
16102;DHT22;56411;52.964;10.540;2024-03-22T00:40:52;7.60;99.90
16102;DHT22;56411;52.964;10.540;2024-03-22T00:43:19;7.60;99.90
16102;DHT22;56411;52.964;10.540;2024-03-22T00:45:45;7.60;99.90
16102;DHT22;56411;52.964;10.540;2024-03-22T00:48:12;7.60;99.90
16102;DHT22;56411;52.964;10.540;2024-03-22T00:50:38;7.60;99.90
16102;DHT22;56411;52.964;10.540;2024-03-22T00:53:05;7.70;99.90
16102;DHT22;56411;52.964;10.540;2024-03-22T00:55:33;7.70;99.90
16102;DHT22;56411;52.964;10.540;2024-03-22T00:58:02;7.70;99.90
16102;DHT22;56411;52.964;10.540;2024-03-22T01:00:28;7.70;99.90
16102;DHT22;56411;52.964;10.540;2024-03-22T01:02:55;7.70;99.90
16102;DHT22;56411;52.964;10.540;2024-03-22T01:05:22;7.80;99.90
16102;DHT22;56411;52.964;10.540;2024-03-22T01:07:48;7.80;99.90
16102;DHT22;56411;52.964;10.540;2024-03-22T01:10:15;7.80;99.90
16102;DHT22;56411;52.964;10.540;2024-03-22T01:12:41;7.80;99.90
16102;DHT22;56411;52.964;10.540;2024-03-22T01:15:09;7.80;99.90
16102;DHT22;56411;52.964;10.540;2024-03-22T01:17:35;7.90;99.90
16102;DHT22;56411;52.964;10.540;2024-03-22T01:20:03;7.90;99.90
16102;DHT22;56411;52.964;10.540;2024-03-22T01:22:29;7.90;99.90
16102;DHT22;56411;52.964;10.540;2024-03-22T01:24:59;7.90;99.90
16102;DHT22;56411;52.964;10.540;2024-03-22T01:27:25;7.90;99.90
16102;DHT22;56411;52.964;10.540;2024-03-22T01:29:53;8.00;99.90
16102;DHT22;56411;52.964;10.540;2024-03-22T01:32:20;8.00;99.90
16102;DHT22;56411;52.964;10.540;2024-03-22T01:34:47;8.00;99.90
16102;DHT22;56411;52.964;10.540;2024-03-22T01:37:13;8.00;99.90
16102;DHT22;56411;52.964;10.540;2024-03-22T01:39:40;8.10;99.90
16102;DHT22;56411;52.964;10.540;2024-03-22T01:42:06;8.10;99.90
16102;DHT22;56411;52.964;10.540;2024-03-22T01:44:33;8.10;99.90
16102;DHT22;56411;52.964;10.540;2024-03-22T01:46:59;8.10;99.90
16102;DHT22;56411;52.964;10.540;2024-03-22T01:49:28;8.10;99.90
16102;DHT22;56411;52.964;10.540;2024-03-22T01:51:55;8.10;99.90
16102;DHT22;56411;52.964;10.540;2024-03-22T01:54:22;8.20;99.90
16102;DHT22;56411;52.964;10.540;2024-03-22T01:56:48;8.20;99.90
16102;DHT22;56411;52.964;10.540;2024-03-22T01:59:17;8.20;99.90
16102;DHT22;56411;52.964;10.540;2024-03-22T02:01:44;8.20;99.90
16102;DHT22;56411;52.964;10.540;2024-03-22T02:04:11;8.20;99.90
16102;DHT22;56411;52.964;10.540;2024-03-22T02:06:38;8.20;99.90
16102;DHT22;56411;52.964;10.540;2024-03-22T02:09:06;8.20;99.90
16102;DHT22;56411;52.964;10.540;2024-03-22T02:11:36;8.20;99.90
16102;DHT22;56411;52.964;10.540;2024-03-22T02:14:04;8.20;99.90
16102;DHT22;56411;52.964;10.540;2024-03-22T02:16:30;8.20;99.90
16102;DHT22;56411;52.964;10.540;2024-03-22T02:18:57;8.20;99.90
16102;DHT22;56411;52.964;10.540;2024-03-22T02:21:23;8.20;99.90
16102;DHT22;56411;52.964;10.540;2024-03-22T02:23:51;8.20;99.90
16102;DHT22;56411;52.964;10.540;2024-03-22T02:26:17;8.20;99.90
16102;DHT22;56411;52.964;10.540;2024-03-22T02:28:44;8.20;99.90
16102;DHT22;56411;52.964;10.540;2024-03-22T02:31:10;8.10;99.90
16102;DHT22;56411;52.964;10.540;2024-03-22T02:33:37;8.10;99.90
16102;DHT22;56411;52.964;10.540;2024-03-22T02:36:04;8.10;99.90
16102;DHT22;56411;52.964;10.540;2024-03-22T02:38:31;8.10;99.90
16102;DHT22;56411;52.964;10.540;2024-03-22T02:41:00;8.10;99.90
16102;DHT22;56411;52.964;10.540;2024-03-22T02:43:27;8.10;99.90
16102;DHT22;56411;52.964;10.540;2024-03-22T02:45:53;8.10;99.90
16102;DHT22;56411;52.964;10.540;2024-03-22T02:48:20;8.10;99.90
16102;DHT22;56411;52.964;10.540;2024-03-22T02:50:46;8.10;99.90
16102;DHT22;56411;52.964;10.540;2024-03-22T02:53:13;8.10;99.90
16102;DHT22;56411;52.964;10.540;2024-03-22T02:55:40;8.10;99.90
16102;DHT22;56411;52.964;10.540;2024-03-22T02:58:09;8.10;99.90
16102;DHT22;56411;52.964;10.540;2024-03-22T03:00:36;8.10;99.90
16102;DHT22;56411;52.964;10.540;2024-03-22T03:03:04;8.10;99.90
16102;DHT22;56411;52.964;10.540;2024-03-22T03:05:30;8.10;99.90
16102;DHT22;56411;52.964;10.540;2024-03-22T03:07:57;8.10;99.90
16102;DHT22;56411;52.964;10.540;2024-03-22T03:10:23;8.10;99.90
16102;DHT22;56411;52.964;10.540;2024-03-22T03:12:50;8.20;99.90
16102;DHT22;56411;52.964;10.540;2024-03-22T03:15:17;8.20;99.90
16102;DHT22;56411;52.964;10.540;2024-03-22T03:17:44;8.20;99.90
16102;DHT22;56411;52.964;10.540;2024-03-22T03:20:11;8.20;99.90
16102;DHT22;56411;52.964;10.540;2024-03-22T03:22:39;8.20;99.90
16102;DHT22;56411;52.964;10.540;2024-03-22T03:25:06;8.20;99.90
16102;DHT22;56411;52.964;10.540;2024-03-22T03:27:33;8.20;99.90
16102;DHT22;56411;52.964;10.540;2024-03-22T03:29:59;8.20;99.90
16102;DHT22;56411;52.964;10.540;2024-03-22T03:32:28;8.30;99.90
16102;DHT22;56411;52.964;10.540;2024-03-22T03:34:54;8.30;99.90
16102;DHT22;56411;52.964;10.540;2024-03-22T03:37:23;8.30;99.90
16102;DHT22;56411;52.964;10.540;2024-03-22T03:39:49;8.30;99.90
16102;DHT22;56411;52.964;10.540;2024-03-22T03:42:16;8.30;99.90
16102;DHT22;56411;52.964;10.540;2024-03-22T03:44:42;8.40;99.90
16102;DHT22;56411;52.964;10.540;2024-03-22T03:47:09;8.40;99.90
16102;DHT22;56411;52.964;10.540;2024-03-22T03:49:37;8.40;99.90
16102;DHT22;56411;52.964;10.540;2024-03-22T03:52:04;8.40;99.90
16102;DHT22;56411;52.964;10.540;2024-03-22T03:54:30;8.50;99.90
16102;DHT22;56411;52.964;10.540;2024-03-22T03:56:57;8.50;99.90
16102;DHT22;56411;52.964;10.540;2024-03-22T03:59:23;8.50;99.90
16102;DHT22;56411;52.964;10.540;2024-03-22T04:01:50;8.50;99.90
16102;DHT22;56411;52.964;10.540;2024-03-22T04:04:16;8.50;99.90
16102;DHT22;56411;52.964;10.540;2024-03-22T04:06:45;8.50;99.90
16102;DHT22;56411;52.964;10.540;2024-03-22T04:09:11;8.60;99.90
16102;DHT22;56411;52.964;10.540;2024-03-22T04:11:38;8.60;99.90
16102;DHT22;56411;52.964;10.540;2024-03-22T04:14:04;8.60;99.90
16102;DHT22;56411;52.964;10.540;2024-03-22T04:16:32;8.60;99.90
16102;DHT22;56411;52.964;10.540;2024-03-22T04:18:58;8.60;99.90
16102;DHT22;56411;52.964;10.540;2024-03-22T04:21:25;8.60;99.90
16102;DHT22;56411;52.964;10.540;2024-03-22T04:23:52;8.70;99.90
16102;DHT22;56411;52.964;10.540;2024-03-22T04:26:19;8.70;99.90
16102;DHT22;56411;52.964;10.540;2024-03-22T04:28:46;8.70;99.90
16102;DHT22;56411;52.964;10.540;2024-03-22T04:31:13;8.70;99.90
16102;DHT22;56411;52.964;10.540;2024-03-22T04:33:40;8.70;99.90
16102;DHT22;56411;52.964;10.540;2024-03-22T04:36:07;8.70;99.90
16102;DHT22;56411;52.964;10.540;2024-03-22T04:38:35;8.70;99.90
16102;DHT22;56411;52.964;10.540;2024-03-22T04:41:04;8.70;99.90
16102;DHT22;56411;52.964;10.540;2024-03-22T04:43:31;8.70;99.90
16102;DHT22;56411;52.964;10.540;2024-03-22T04:45:58;8.70;99.90
16102;DHT22;56411;52.964;10.540;2024-03-22T04:48:24;8.70;99.90
16102;DHT22;56411;52.964;10.540;2024-03-22T04:50:52;8.70;99.90
16102;DHT22;56411;52.964;10.540;2024-03-22T04:53:19;8.70;99.90
16102;DHT22;56411;52.964;10.540;2024-03-22T04:55:47;8.70;99.90
16102;DHT22;56411;52.964;10.540;2024-03-22T04:58:18;8.70;99.90
16102;DHT22;56411;52.964;10.540;2024-03-22T05:00:46;8.80;99.90
16102;DHT22;56411;52.964;10.540;2024-03-22T05:03:12;8.70;99.90
16102;DHT22;56411;52.964;10.540;2024-03-22T05:05:40;8.80;99.90
16102;DHT22;56411;52.964;10.540;2024-03-22T05:08:07;8.80;99.90
16102;DHT22;56411;52.964;10.540;2024-03-22T05:10:37;8.80;99.90
16102;DHT22;56411;52.964;10.540;2024-03-22T05:13:03;8.90;99.90
16102;DHT22;56411;52.964;10.540;2024-03-22T05:15:31;8.90;99.90
16102;DHT22;56411;52.964;10.540;2024-03-22T05:17:58;8.90;99.90
16102;DHT22;56411;52.964;10.540;2024-03-22T05:20:25;8.80;99.90
16102;DHT22;56411;52.964;10.540;2024-03-22T05:22:52;8.80;99.90
16102;DHT22;56411;52.964;10.540;2024-03-22T05:25:19;8.80;99.90
16102;DHT22;56411;52.964;10.540;2024-03-22T05:27:45;8.80;99.90
16102;DHT22;56411;52.964;10.540;2024-03-22T05:30:13;8.80;99.90
16102;DHT22;56411;52.964;10.540;2024-03-22T05:32:40;8.80;99.90
16102;DHT22;56411;52.964;10.540;2024-03-22T05:35:08;8.80;99.90
16102;DHT22;56411;52.964;10.540;2024-03-22T05:37:34;8.80;99.90
16102;DHT22;56411;52.964;10.540;2024-03-22T05:40:02;8.80;99.90
16102;DHT22;56411;52.964;10.540;2024-03-22T05:42:29;8.80;99.90
16102;DHT22;56411;52.964;10.540;2024-03-22T05:44:56;8.90;99.90
16102;DHT22;56411;52.964;10.540;2024-03-22T05:47:22;8.90;99.90
16102;DHT22;56411;52.964;10.540;2024-03-22T05:49:51;8.90;99.90
16102;DHT22;56411;52.964;10.540;2024-03-22T05:52:17;8.90;99.90
16102;DHT22;56411;52.964;10.540;2024-03-22T05:54:44;8.90;99.90
16102;DHT22;56411;52.964;10.540;2024-03-22T05:57:11;8.90;99.90
16102;DHT22;56411;52.964;10.540;2024-03-22T05:59:38;8.90;99.90
16102;DHT22;56411;52.964;10.540;2024-03-22T06:02:05;8.90;99.90
16102;DHT22;56411;52.964;10.540;2024-03-22T06:04:32;8.90;99.90
16102;DHT22;56411;52.964;10.540;2024-03-22T06:07:00;8.90;99.90
16102;DHT22;56411;52.964;10.540;2024-03-22T06:09:29;8.90;99.90
16102;DHT22;56411;52.964;10.540;2024-03-22T06:12:03;9.00;99.90
16102;DHT22;56411;52.964;10.540;2024-03-22T06:14:30;9.00;99.90
16102;DHT22;56411;52.964;10.540;2024-03-22T06:16:56;9.00;99.90
16102;DHT22;56411;52.964;10.540;2024-03-22T06:19:23;9.00;99.90
16102;DHT22;56411;52.964;10.540;2024-03-22T06:21:49;9.00;99.90
16102;DHT22;56411;52.964;10.540;2024-03-22T06:24:18;9.10;99.90
16102;DHT22;56411;52.964;10.540;2024-03-22T06:26:44;9.10;99.90
16102;DHT22;56411;52.964;10.540;2024-03-22T06:29:11;9.10;99.90
16102;DHT22;56411;52.964;10.540;2024-03-22T06:31:38;9.10;99.90
16102;DHT22;56411;52.964;10.540;2024-03-22T06:34:05;9.20;99.90
16102;DHT22;56411;52.964;10.540;2024-03-22T06:36:31;9.20;99.90
16102;DHT22;56411;52.964;10.540;2024-03-22T06:38:59;9.20;99.90
16102;DHT22;56411;52.964;10.540;2024-03-22T06:41:27;9.30;99.90
16102;DHT22;56411;52.964;10.540;2024-03-22T06:43:54;9.30;99.90
16102;DHT22;56411;52.964;10.540;2024-03-22T06:46:20;9.30;99.90
16102;DHT22;56411;52.964;10.540;2024-03-22T06:48:48;9.40;99.90
16102;DHT22;56411;52.964;10.540;2024-03-22T06:51:14;9.40;99.90
16102;DHT22;56411;52.964;10.540;2024-03-22T06:53:42;9.50;99.90
16102;DHT22;56411;52.964;10.540;2024-03-22T06:56:08;9.50;99.90
16102;DHT22;56411;52.964;10.540;2024-03-22T06:58:38;9.50;99.90
16102;DHT22;56411;52.964;10.540;2024-03-22T07:01:05;9.60;99.90
16102;DHT22;56411;52.964;10.540;2024-03-22T07:03:32;9.60;99.90
16102;DHT22;56411;52.964;10.540;2024-03-22T07:05:58;9.70;99.90
16102;DHT22;56411;52.964;10.540;2024-03-22T07:08:26;9.70;99.90
16102;DHT22;56411;52.964;10.540;2024-03-22T07:10:52;9.70;99.90
16102;DHT22;56411;52.964;10.540;2024-03-22T07:13:20;9.80;99.90
16102;DHT22;56411;52.964;10.540;2024-03-22T07:15:47;9.80;99.90
16102;DHT22;56411;52.964;10.540;2024-03-22T07:18:15;9.80;99.90
16102;DHT22;56411;52.964;10.540;2024-03-22T07:20:41;9.90;99.90
16102;DHT22;56411;52.964;10.540;2024-03-22T07:23:08;9.90;99.90
16102;DHT22;56411;52.964;10.540;2024-03-22T07:25:34;10.00;99.90
16102;DHT22;56411;52.964;10.540;2024-03-22T07:28:02;10.00;99.90
16102;DHT22;56411;52.964;10.540;2024-03-22T07:30:28;10.00;99.90
16102;DHT22;56411;52.964;10.540;2024-03-22T07:32:56;10.10;99.90
16102;DHT22;56411;52.964;10.540;2024-03-22T07:35:22;10.20;99.90
16102;DHT22;56411;52.964;10.540;2024-03-22T07:37:50;10.20;99.90
16102;DHT22;56411;52.964;10.540;2024-03-22T07:40:17;10.30;99.90
16102;DHT22;56411;52.964;10.540;2024-03-22T07:42:45;10.30;99.90
16102;DHT22;56411;52.964;10.540;2024-03-22T07:45:11;10.30;99.90
16102;DHT22;56411;52.964;10.540;2024-03-22T07:47:39;10.40;99.90
16102;DHT22;56411;52.964;10.540;2024-03-22T07:50:09;10.40;99.90
16102;DHT22;56411;52.964;10.540;2024-03-22T07:52:37;10.40;99.90
16102;DHT22;56411;52.964;10.540;2024-03-22T07:55:03;10.40;99.90
16102;DHT22;56411;52.964;10.540;2024-03-22T07:57:30;10.40;99.90
16102;DHT22;56411;52.964;10.540;2024-03-22T07:59:56;10.40;99.90
16102;DHT22;56411;52.964;10.540;2024-03-22T08:02:23;10.40;99.90
16102;DHT22;56411;52.964;10.540;2024-03-22T08:04:49;10.40;99.90
16102;DHT22;56411;52.964;10.540;2024-03-22T08:07:18;10.40;99.90
16102;DHT22;56411;52.964;10.540;2024-03-22T08:09:44;10.50;99.90
16102;DHT22;56411;52.964;10.540;2024-03-22T08:12:11;10.50;99.90
16102;DHT22;56411;52.964;10.540;2024-03-22T08:14:37;10.60;99.90
16102;DHT22;56411;52.964;10.540;2024-03-22T08:17:04;10.60;99.90
16102;DHT22;56411;52.964;10.540;2024-03-22T08:19:30;10.70;99.90
16102;DHT22;56411;52.964;10.540;2024-03-22T08:21:57;10.70;99.90
16102;DHT22;56411;52.964;10.540;2024-03-22T08:24:24;10.80;99.90
16102;DHT22;56411;52.964;10.540;2024-03-22T08:26:51;10.80;99.90
16102;DHT22;56411;52.964;10.540;2024-03-22T08:29:17;10.90;99.90
16102;DHT22;56411;52.964;10.540;2024-03-22T08:31:44;10.90;99.90
16102;DHT22;56411;52.964;10.540;2024-03-22T08:34:10;10.90;99.90
16102;DHT22;56411;52.964;10.540;2024-03-22T08:36:37;11.00;99.90
16102;DHT22;56411;52.964;10.540;2024-03-22T08:39:03;11.00;99.90
16102;DHT22;56411;52.964;10.540;2024-03-22T08:41:34;11.00;99.90
16102;DHT22;56411;52.964;10.540;2024-03-22T08:44:00;11.10;99.90
16102;DHT22;56411;52.964;10.540;2024-03-22T08:46:27;11.10;99.90
16102;DHT22;56411;52.964;10.540;2024-03-22T08:48:53;11.10;99.90
16102;DHT22;56411;52.964;10.540;2024-03-22T08:51:21;11.20;99.90
16102;DHT22;56411;52.964;10.540;2024-03-22T08:53:47;11.20;99.90
16102;DHT22;56411;52.964;10.540;2024-03-22T08:56:14;11.20;99.90
16102;DHT22;56411;52.964;10.540;2024-03-22T08:58:41;11.20;99.90
16102;DHT22;56411;52.964;10.540;2024-03-22T09:01:08;11.20;99.90
16102;DHT22;56411;52.964;10.540;2024-03-22T09:03:36;11.20;99.90
16102;DHT22;56411;52.964;10.540;2024-03-22T09:06:03;11.20;99.90
16102;DHT22;56411;52.964;10.540;2024-03-22T09:08:31;11.20;99.90
16102;DHT22;56411;52.964;10.540;2024-03-22T09:11:00;11.30;99.90
16102;DHT22;56411;52.964;10.540;2024-03-22T09:13:26;11.30;99.90
16102;DHT22;56411;52.964;10.540;2024-03-22T09:15:58;11.30;99.90
16102;DHT22;56411;52.964;10.540;2024-03-22T09:18:24;11.30;99.90
16102;DHT22;56411;52.964;10.540;2024-03-22T09:20:51;11.30;99.90
16102;DHT22;56411;52.964;10.540;2024-03-22T09:23:18;11.30;99.90
16102;DHT22;56411;52.964;10.540;2024-03-22T09:25:45;11.30;99.90
16102;DHT22;56411;52.964;10.540;2024-03-22T09:28:11;11.30;99.90
16102;DHT22;56411;52.964;10.540;2024-03-22T09:30:39;11.20;99.90
16102;DHT22;56411;52.964;10.540;2024-03-22T09:33:07;11.20;99.90
16102;DHT22;56411;52.964;10.540;2024-03-22T09:35:34;11.20;99.90
16102;DHT22;56411;52.964;10.540;2024-03-22T09:38:01;11.20;99.90
16102;DHT22;56411;52.964;10.540;2024-03-22T09:40:28;11.20;99.90
16102;DHT22;56411;52.964;10.540;2024-03-22T09:42:59;11.30;99.90
16102;DHT22;56411;52.964;10.540;2024-03-22T09:45:28;11.30;99.90
16102;DHT22;56411;52.964;10.540;2024-03-22T09:47:55;11.30;99.90
16102;DHT22;56411;52.964;10.540;2024-03-22T09:50:25;11.40;99.90
16102;DHT22;56411;52.964;10.540;2024-03-22T09:52:52;11.40;99.90
16102;DHT22;56411;52.964;10.540;2024-03-22T09:55:22;11.50;99.90
16102;DHT22;56411;52.964;10.540;2024-03-22T09:57:49;11.60;99.90
16102;DHT22;56411;52.964;10.540;2024-03-22T10:00:18;11.60;99.90
16102;DHT22;56411;52.964;10.540;2024-03-22T10:02:46;11.80;99.90
16102;DHT22;56411;52.964;10.540;2024-03-22T10:05:13;11.80;99.90
16102;DHT22;56411;52.964;10.540;2024-03-22T10:07:41;11.80;99.90
16102;DHT22;56411;52.964;10.540;2024-03-22T10:10:08;11.80;99.90
16102;DHT22;56411;52.964;10.540;2024-03-22T10:12:34;11.80;99.90
16102;DHT22;56411;52.964;10.540;2024-03-22T10:15:01;11.80;99.90
16102;DHT22;56411;52.964;10.540;2024-03-22T10:17:29;11.70;99.90
16102;DHT22;56411;52.964;10.540;2024-03-22T10:19:56;11.60;99.90
16102;DHT22;56411;52.964;10.540;2024-03-22T10:22:22;11.70;99.90
16102;DHT22;56411;52.964;10.540;2024-03-22T10:24:51;11.60;99.90
16102;DHT22;56411;52.964;10.540;2024-03-22T10:27:19;11.50;99.90
16102;DHT22;56411;52.964;10.540;2024-03-22T10:29:47;11.50;99.90
16102;DHT22;56411;52.964;10.540;2024-03-22T10:32:13;11.50;99.90
16102;DHT22;56411;52.964;10.540;2024-03-22T10:34:40;11.50;99.90
16102;DHT22;56411;52.964;10.540;2024-03-22T10:37:09;11.40;99.90
16102;DHT22;56411;52.964;10.540;2024-03-22T10:39:38;11.50;99.90
16102;DHT22;56411;52.964;10.540;2024-03-22T10:42:06;11.40;99.90
16102;DHT22;56411;52.964;10.540;2024-03-22T10:44:33;11.40;99.90
16102;DHT22;56411;52.964;10.540;2024-03-22T10:47:01;11.40;99.90
16102;DHT22;56411;52.964;10.540;2024-03-22T10:49:32;11.40;99.90
16102;DHT22;56411;52.964;10.540;2024-03-22T10:52:01;11.50;99.90
16102;DHT22;56411;52.964;10.540;2024-03-22T10:54:32;11.50;99.90
16102;DHT22;56411;52.964;10.540;2024-03-22T10:57:01;11.60;99.90
16102;DHT22;56411;52.964;10.540;2024-03-22T10:59:33;11.70;99.90
16102;DHT22;56411;52.964;10.540;2024-03-22T11:02:03;11.60;99.90
16102;DHT22;56411;52.964;10.540;2024-03-22T11:04:30;11.60;99.90
16102;DHT22;56411;52.964;10.540;2024-03-22T11:06:57;11.60;99.90
16102;DHT22;56411;52.964;10.540;2024-03-22T11:09:23;11.60;99.90
16102;DHT22;56411;52.964;10.540;2024-03-22T11:11:52;11.60;99.90
16102;DHT22;56411;52.964;10.540;2024-03-22T11:14:18;11.50;99.90
16102;DHT22;56411;52.964;10.540;2024-03-22T11:16:47;11.50;99.90
16102;DHT22;56411;52.964;10.540;2024-03-22T11:19:13;11.50;99.90
16102;DHT22;56411;52.964;10.540;2024-03-22T11:21:40;11.50;99.90
16102;DHT22;56411;52.964;10.540;2024-03-22T11:24:07;11.50;99.90
16102;DHT22;56411;52.964;10.540;2024-03-22T11:26:34;11.50;99.90
16102;DHT22;56411;52.964;10.540;2024-03-22T11:29:00;11.50;99.90
16102;DHT22;56411;52.964;10.540;2024-03-22T11:31:28;11.50;99.90
16102;DHT22;56411;52.964;10.540;2024-03-22T11:33:56;11.50;99.90
16102;DHT22;56411;52.964;10.540;2024-03-22T11:36:23;11.50;99.90
16102;DHT22;56411;52.964;10.540;2024-03-22T11:38:49;11.50;99.90
16102;DHT22;56411;52.964;10.540;2024-03-22T11:41:23;11.40;99.90
16102;DHT22;56411;52.964;10.540;2024-03-22T11:43:50;11.50;99.90
16102;DHT22;56411;52.964;10.540;2024-03-22T11:46:18;11.50;99.90
16102;DHT22;56411;52.964;10.540;2024-03-22T11:48:51;11.50;99.90
16102;DHT22;56411;52.964;10.540;2024-03-22T11:51:20;11.50;99.90
16102;DHT22;56411;52.964;10.540;2024-03-22T11:53:49;11.50;99.90
16102;DHT22;56411;52.964;10.540;2024-03-22T11:56:20;11.50;99.90
16102;DHT22;56411;52.964;10.540;2024-03-22T11:58:47;11.50;99.90
16102;DHT22;56411;52.964;10.540;2024-03-22T12:01:15;11.40;99.90
16102;DHT22;56411;52.964;10.540;2024-03-22T12:03:44;11.40;99.90
16102;DHT22;56411;52.964;10.540;2024-03-22T12:06:10;11.40;99.90
16102;DHT22;56411;52.964;10.540;2024-03-22T12:08:39;11.40;99.90
16102;DHT22;56411;52.964;10.540;2024-03-22T12:11:07;11.40;99.90
16102;DHT22;56411;52.964;10.540;2024-03-22T12:13:34;11.30;99.90
16102;DHT22;56411;52.964;10.540;2024-03-22T12:16:00;11.30;99.90
16102;DHT22;56411;52.964;10.540;2024-03-22T12:18:28;11.40;99.90
16102;DHT22;56411;52.964;10.540;2024-03-22T12:20:53;11.30;99.90
16102;DHT22;56411;52.964;10.540;2024-03-22T12:23:21;11.40;99.90
16102;DHT22;56411;52.964;10.540;2024-03-22T12:25:49;11.40;99.90
16102;DHT22;56411;52.964;10.540;2024-03-22T12:28:16;11.40;99.90
16102;DHT22;56411;52.964;10.540;2024-03-22T12:30:42;11.40;99.90
16102;DHT22;56411;52.964;10.540;2024-03-22T12:33:10;11.40;99.90
16102;DHT22;56411;52.964;10.540;2024-03-22T12:35:36;11.30;99.90
16102;DHT22;56411;52.964;10.540;2024-03-22T12:38:03;11.30;99.90
16102;DHT22;56411;52.964;10.540;2024-03-22T12:40:29;11.30;99.90
16102;DHT22;56411;52.964;10.540;2024-03-22T12:42:59;11.40;99.90
16102;DHT22;56411;52.964;10.540;2024-03-22T12:45:25;11.40;99.90
16102;DHT22;56411;52.964;10.540;2024-03-22T12:47:52;11.40;99.90
16102;DHT22;56411;52.964;10.540;2024-03-22T12:50:18;11.40;99.90
16102;DHT22;56411;52.964;10.540;2024-03-22T12:52:45;11.50;99.90
16102;DHT22;56411;52.964;10.540;2024-03-22T12:55:11;11.60;99.90
16102;DHT22;56411;52.964;10.540;2024-03-22T12:57:38;11.60;99.90
16102;DHT22;56411;52.964;10.540;2024-03-22T13:00:08;11.60;99.90
16102;DHT22;56411;52.964;10.540;2024-03-22T13:02:39;11.70;99.90
16102;DHT22;56411;52.964;10.540;2024-03-22T13:05:05;11.70;99.90
16102;DHT22;56411;52.964;10.540;2024-03-22T13:07:32;11.70;99.90
16102;DHT22;56411;52.964;10.540;2024-03-22T13:09:58;11.60;99.90
16102;DHT22;56411;52.964;10.540;2024-03-22T13:12:27;11.70;99.90
16102;DHT22;56411;52.964;10.540;2024-03-22T13:14:54;11.70;99.90
16102;DHT22;56411;52.964;10.540;2024-03-22T13:17:23;11.70;99.90
16102;DHT22;56411;52.964;10.540;2024-03-22T13:19:49;11.70;99.90
16102;DHT22;56411;52.964;10.540;2024-03-22T13:22:16;11.70;99.90
16102;DHT22;56411;52.964;10.540;2024-03-22T13:24:44;11.70;99.90
16102;DHT22;56411;52.964;10.540;2024-03-22T13:27:11;11.70;99.90
16102;DHT22;56411;52.964;10.540;2024-03-22T13:29:38;11.70;99.90
16102;DHT22;56411;52.964;10.540;2024-03-22T13:32:06;11.70;99.90
16102;DHT22;56411;52.964;10.540;2024-03-22T13:34:34;11.70;99.90
16102;DHT22;56411;52.964;10.540;2024-03-22T13:37:01;11.70;99.90
16102;DHT22;56411;52.964;10.540;2024-03-22T13:39:28;11.70;99.90
16102;DHT22;56411;52.964;10.540;2024-03-22T13:41:56;11.60;99.90
16102;DHT22;56411;52.964;10.540;2024-03-22T13:44:22;11.60;99.90
16102;DHT22;56411;52.964;10.540;2024-03-22T13:46:50;11.50;99.90
16102;DHT22;56411;52.964;10.540;2024-03-22T13:49:17;11.60;99.90
16102;DHT22;56411;52.964;10.540;2024-03-22T13:51:47;11.50;99.90
16102;DHT22;56411;52.964;10.540;2024-03-22T13:54:13;11.50;99.90
16102;DHT22;56411;52.964;10.540;2024-03-22T13:56:40;11.50;99.90
16102;DHT22;56411;52.964;10.540;2024-03-22T13:59:07;11.40;99.90
16102;DHT22;56411;52.964;10.540;2024-03-22T14:01:34;11.40;99.90
16102;DHT22;56411;52.964;10.540;2024-03-22T14:04:00;11.40;99.90
16102;DHT22;56411;52.964;10.540;2024-03-22T14:06:29;11.40;99.90
16102;DHT22;56411;52.964;10.540;2024-03-22T14:08:56;11.40;99.90
16102;DHT22;56411;52.964;10.540;2024-03-22T14:11:26;11.40;99.90
16102;DHT22;56411;52.964;10.540;2024-03-22T14:13:52;11.40;99.90
16102;DHT22;56411;52.964;10.540;2024-03-22T14:16:19;11.30;99.90
16102;DHT22;56411;52.964;10.540;2024-03-22T14:18:46;11.40;99.90
16102;DHT22;56411;52.964;10.540;2024-03-22T14:21:13;11.30;99.90
16102;DHT22;56411;52.964;10.540;2024-03-22T14:23:44;11.30;99.90
16102;DHT22;56411;52.964;10.540;2024-03-22T14:26:13;11.30;99.90
16102;DHT22;56411;52.964;10.540;2024-03-22T14:28:41;11.30;99.90
16102;DHT22;56411;52.964;10.540;2024-03-22T14:31:08;11.20;99.90
16102;DHT22;56411;52.964;10.540;2024-03-22T14:33:34;11.20;99.90
16102;DHT22;56411;52.964;10.540;2024-03-22T14:36:02;11.20;99.90
16102;DHT22;56411;52.964;10.540;2024-03-22T14:38:28;11.20;99.90
16102;DHT22;56411;52.964;10.540;2024-03-22T14:40:55;11.10;99.90
16102;DHT22;56411;52.964;10.540;2024-03-22T14:43:23;11.10;99.90
16102;DHT22;56411;52.964;10.540;2024-03-22T14:45:51;11.10;99.90
16102;DHT22;56411;52.964;10.540;2024-03-22T14:48:18;11.10;99.90
16102;DHT22;56411;52.964;10.540;2024-03-22T14:50:46;11.10;99.90
16102;DHT22;56411;52.964;10.540;2024-03-22T14:53:12;11.00;99.90
16102;DHT22;56411;52.964;10.540;2024-03-22T14:55:39;11.00;99.90
16102;DHT22;56411;52.964;10.540;2024-03-22T14:58:06;11.00;99.90
16102;DHT22;56411;52.964;10.540;2024-03-22T15:00:34;11.00;99.90
16102;DHT22;56411;52.964;10.540;2024-03-22T15:03:00;11.00;99.90
16102;DHT22;56411;52.964;10.540;2024-03-22T15:05:27;11.00;99.90
16102;DHT22;56411;52.964;10.540;2024-03-22T15:07:53;11.00;99.90
16102;DHT22;56411;52.964;10.540;2024-03-22T15:10:23;10.90;99.90
16102;DHT22;56411;52.964;10.540;2024-03-22T15:12:49;10.90;99.90
16102;DHT22;56411;52.964;10.540;2024-03-22T15:15:17;10.90;99.90
16102;DHT22;56411;52.964;10.540;2024-03-22T15:17:44;10.90;99.90
16102;DHT22;56411;52.964;10.540;2024-03-22T15:20:11;10.90;99.90
16102;DHT22;56411;52.964;10.540;2024-03-22T15:22:37;10.90;99.90